BAW407 EGPF-EGKK
Flight info
| Callsign | BAW407 |
|---|---|
| Flight time | 1h 5m |
| Altitude | 25000 |
| Route | NORBO T256 DCS/N0453F330 DCT ADZOP DCT EGTOC DCT KEPAD L151 DISIT |
| Aircraft | A20N/M-SDE2E3FGHIRWXY/LB1 |
Departure
| Time | 2026-05-05 15:15 |
|---|---|
| Airport | Glasgow Airport (EGPF) |
Arrival
| Time | 2026-05-05 16:20 |
|---|---|
| Airport | London Gatwick Airport (EGKK) |
| Time | Latitude | Longitude | Altitude | Speed | Heading |
|---|---|---|---|---|---|
| 2026-05-05 15:05 | 55.86640 | -4.43292 | 34 ft | 0 kts | 253° |
| 2026-05-05 15:07 | 55.86640 | -4.43293 | 34 ft | 0 kts | 253° |
| 2026-05-05 15:08 | 55.86644 | -4.43268 | 34 ft | 2 kts | 259° |
| 2026-05-05 15:08 | 55.86641 | -4.43240 | 33 ft | 2 kts | 328° |
| 2026-05-05 15:08 | 55.86637 | -4.43235 | 33 ft | 0 kts | 345° |
| 2026-05-05 15:09 | 55.86667 | -4.43249 | 33 ft | 11 kts | 350° |
| 2026-05-05 15:09 | 55.86748 | -4.43267 | 34 ft | 12 kts | 346° |
| 2026-05-05 15:09 | 55.86787 | -4.43377 | 33 ft | 12 kts | 262° |
| 2026-05-05 15:10 | 55.86764 | -4.43534 | 33 ft | 14 kts | 256° |
| 2026-05-05 15:10 | 55.86740 | -4.43703 | 32 ft | 15 kts | 253° |
| 2026-05-05 15:10 | 55.86675 | -4.43859 | 31 ft | 16 kts | 226° |
| 2026-05-05 15:10 | 55.86599 | -4.43999 | 32 ft | 16 kts | 226° |
| 2026-05-05 15:11 | 55.86522 | -4.44141 | 35 ft | 15 kts | 226° |
| 2026-05-05 15:11 | 55.86450 | -4.44279 | 35 ft | 16 kts | 228° |
| 2026-05-05 15:11 | 55.86371 | -4.44428 | 35 ft | 17 kts | 225° |
| 2026-05-05 15:11 | 55.86286 | -4.44586 | 32 ft | 16 kts | 226° |
| 2026-05-05 15:12 | 55.86260 | -4.44723 | 31 ft | 12 kts | 306° |
| 2026-05-05 15:12 | 55.86282 | -4.44764 | 34 ft | 0 kts | 316° |
| 2026-05-05 15:12 | 55.86290 | -4.44777 | 34 ft | 0 kts | 316° |
| 2026-05-05 15:13 | 55.86308 | -4.44807 | 35 ft | 14 kts | 316° |
| 2026-05-05 15:13 | 55.86404 | -4.44802 | 35 ft | 17 kts | 45° |
| 2026-05-05 15:13 | 55.86512 | -4.44599 | 40 ft | 62 kts | 47° |
| 2026-05-05 15:14 | 55.86587 | -4.44452 | 40 ft | 83 kts | 46° |
| 2026-05-05 15:15 | 55.87183 | -4.43329 | 219 ft | 155 kts | 49° |
| 2026-05-05 15:15 | 55.88021 | -4.41739 | 660 ft | 196 kts | 48° |
| 2026-05-05 15:15 | 55.89070 | -4.39777 | 1184 ft | 239 kts | 49° |
| 2026-05-05 15:15 | 55.90289 | -4.37508 | 1767 ft | 255 kts | 49° |
| 2026-05-05 15:16 | 55.91477 | -4.35308 | 2263 ft | 240 kts | 49° |
| 2026-05-05 15:16 | 55.92685 | -4.33255 | 2785 ft | 242 kts | 40° |
| 2026-05-05 15:16 | 55.94255 | -4.32128 | 3315 ft | 251 kts | 8° |
| 2026-05-05 15:16 | 55.95951 | -4.32824 | 3955 ft | 258 kts | 330° |
| 2026-05-05 15:17 | 55.97135 | -4.35205 | 4616 ft | 262 kts | 298° |
| 2026-05-05 15:17 | 55.97728 | -4.38270 | 5269 ft | 262 kts | 282° |
| 2026-05-05 15:17 | 55.97720 | -4.41514 | 5908 ft | 264 kts | 259° |
| 2026-05-05 15:17 | 55.97105 | -4.44612 | 6584 ft | 266 kts | 248° |
| 2026-05-05 15:18 | 55.96312 | -4.47586 | 7216 ft | 265 kts | 247° |
| 2026-05-05 15:18 | 55.95423 | -4.50487 | 7853 ft | 268 kts | 240° |
| 2026-05-05 15:18 | 55.94315 | -4.53183 | 8499 ft | 275 kts | 234° |
| 2026-05-05 15:18 | 55.93068 | -4.55986 | 9187 ft | 302 kts | 234° |
| 2026-05-05 15:19 | 55.91708 | -4.59030 | 9898 ft | 326 kts | 234° |
| 2026-05-05 15:19 | 55.90256 | -4.62282 | 10528 ft | 342 kts | 234° |
| 2026-05-05 15:19 | 55.88755 | -4.65625 | 11154 ft | 348 kts | 233° |
| 2026-05-05 15:19 | 55.87207 | -4.68961 | 11772 ft | 351 kts | 232° |
| 2026-05-05 15:20 | 55.85409 | -4.71948 | 12420 ft | 358 kts | 219° |
| 2026-05-05 15:20 | 55.83189 | -4.73918 | 13071 ft | 367 kts | 200° |
| 2026-05-05 15:20 | 55.80644 | -4.74671 | 13748 ft | 375 kts | 188° |
| 2026-05-05 15:20 | 55.78018 | -4.74911 | 14365 ft | 380 kts | 186° |
| 2026-05-05 15:21 | 55.75368 | -4.75075 | 14978 ft | 383 kts | 185° |
| 2026-05-05 15:21 | 55.72692 | -4.75246 | 15602 ft | 387 kts | 186° |
| 2026-05-05 15:21 | 55.69995 | -4.75432 | 16246 ft | 390 kts | 186° |
| 2026-05-05 15:21 | 55.67272 | -4.75631 | 16882 ft | 394 kts | 186° |
| 2026-05-05 15:22 | 55.64489 | -4.75843 | 17596 ft | 405 kts | 186° |
| 2026-05-05 15:22 | 55.61658 | -4.76058 | 18584 ft | 408 kts | 185° |
| 2026-05-05 15:22 | 55.58807 | -4.76078 | 19412 ft | 414 kts | 181° |
| 2026-05-05 15:22 | 55.55890 | -4.75781 | 19960 ft | 427 kts | 178° |
| 2026-05-05 15:23 | 55.52894 | -4.75285 | 20472 ft | 438 kts | 176° |
| 2026-05-05 15:23 | 55.49826 | -4.74688 | 20989 ft | 448 kts | 176° |
| 2026-05-05 15:23 | 55.46713 | -4.74059 | 21505 ft | 453 kts | 176° |
| 2026-05-05 15:23 | 55.43574 | -4.73436 | 22032 ft | 455 kts | 176° |
| 2026-05-05 15:24 | 55.40409 | -4.72829 | 22567 ft | 458 kts | 176° |
| 2026-05-05 15:24 | 55.37228 | -4.72241 | 23109 ft | 461 kts | 176° |
| 2026-05-05 15:24 | 55.34025 | -4.71664 | 23662 ft | 464 kts | 176° |
| 2026-05-05 15:24 | 55.30803 | -4.71094 | 24132 ft | 467 kts | 176° |
| 2026-05-05 15:25 | 55.27556 | -4.70524 | 24607 ft | 470 kts | 176° |
| 2026-05-05 15:25 | 55.24293 | -4.69954 | 24945 ft | 473 kts | 176° |
| 2026-05-05 15:25 | 55.21017 | -4.69380 | 25037 ft | 474 kts | 176° |
| 2026-05-05 15:25 | 55.17730 | -4.68699 | 25040 ft | 477 kts | 172° |
| 2026-05-05 15:26 | 55.14505 | -4.67291 | 25036 ft | 480 kts | 163° |
| 2026-05-05 15:26 | 55.11466 | -4.64874 | 25039 ft | 483 kts | 151° |
| 2026-05-05 15:26 | 55.08771 | -4.61366 | 25039 ft | 486 kts | 138° |
| 2026-05-05 15:26 | 55.06588 | -4.56865 | 25031 ft | 488 kts | 124° |
| 2026-05-05 15:27 | 55.04868 | -4.51762 | 25034 ft | 488 kts | 119° |
| 2026-05-05 15:27 | 55.03340 | -4.46464 | 25031 ft | 489 kts | 116° |
| 2026-05-05 15:27 | 55.01910 | -4.41096 | 25032 ft | 489 kts | 115° |
| 2026-05-05 15:27 | 55.00508 | -4.35703 | 25034 ft | 489 kts | 115° |
| 2026-05-05 15:28 | 54.99098 | -4.30305 | 25025 ft | 489 kts | 115° |
| 2026-05-05 15:28 | 54.97672 | -4.24934 | 25026 ft | 489 kts | 116° |
| 2026-05-05 15:28 | 54.96225 | -4.19578 | 25026 ft | 489 kts | 116° |
| 2026-05-05 15:28 | 54.94763 | -4.14239 | 25026 ft | 489 kts | 116° |
| 2026-05-05 15:29 | 54.93290 | -4.08903 | 25018 ft | 489 kts | 117° |
| 2026-05-05 15:29 | 54.91830 | -4.03649 | 25026 ft | 490 kts | 117° |
| 2026-05-05 15:29 | 54.90349 | -3.98335 | 25026 ft | 490 kts | 117° |
| 2026-05-05 15:29 | 54.88856 | -3.92990 | 25027 ft | 490 kts | 117° |
| 2026-05-05 15:30 | 54.87367 | -3.87670 | 25023 ft | 490 kts | 117° |
| 2026-05-05 15:30 | 54.85874 | -3.82343 | 25026 ft | 490 kts | 117° |
| 2026-05-05 15:30 | 54.84380 | -3.77025 | 25026 ft | 491 kts | 117° |
| 2026-05-05 15:30 | 54.82881 | -3.71699 | 25026 ft | 491 kts | 117° |
| 2026-05-05 15:31 | 54.81380 | -3.66375 | 25026 ft | 492 kts | 117° |
| 2026-05-05 15:31 | 54.79874 | -3.61050 | 25023 ft | 492 kts | 117° |
| 2026-05-05 15:31 | 54.78370 | -3.55740 | 25023 ft | 492 kts | 117° |
| 2026-05-05 15:31 | 54.76861 | -3.50425 | 25023 ft | 492 kts | 117° |
| 2026-05-05 15:32 | 54.75350 | -3.45116 | 25024 ft | 492 kts | 117° |
| 2026-05-05 15:32 | 54.73765 | -3.39876 | 25023 ft | 491 kts | 122° |
| 2026-05-05 15:32 | 54.71795 | -3.35076 | 25023 ft | 488 kts | 132° |
| 2026-05-05 15:32 | 54.69367 | -3.31024 | 25012 ft | 484 kts | 144° |
| 2026-05-05 15:33 | 54.66524 | -3.27977 | 25021 ft | 479 kts | 157° |
| 2026-05-05 15:33 | 54.63400 | -3.26119 | 25022 ft | 473 kts | 170° |
| 2026-05-05 15:33 | 54.60165 | -3.25179 | 25019 ft | 471 kts | 175° |
| 2026-05-05 15:33 | 54.56908 | -3.24643 | 25016 ft | 470 kts | 179° |
| 2026-05-05 15:34 | 54.53645 | -3.24304 | 25018 ft | 469 kts | 180° |
| 2026-05-05 15:34 | 54.50386 | -3.24029 | 25011 ft | 469 kts | 180° |
| 2026-05-05 15:34 | 54.47121 | -3.23751 | 25016 ft | 469 kts | 180° |
| 2026-05-05 15:34 | 54.43864 | -3.23442 | 25010 ft | 469 kts | 179° |
| 2026-05-05 15:35 | 54.40609 | -3.23101 | 25015 ft | 468 kts | 179° |
| 2026-05-05 15:35 | 54.37358 | -3.22735 | 25016 ft | 468 kts | 179° |
| 2026-05-05 15:35 | 54.34113 | -3.22354 | 25013 ft | 468 kts | 179° |
| 2026-05-05 15:35 | 54.30865 | -3.21967 | 25019 ft | 468 kts | 179° |
| 2026-05-05 15:36 | 54.27615 | -3.21577 | 25026 ft | 468 kts | 179° |
| 2026-05-05 15:36 | 54.24371 | -3.21189 | 25019 ft | 468 kts | 179° |
| 2026-05-05 15:36 | 54.21119 | -3.20802 | 25020 ft | 468 kts | 179° |
| 2026-05-05 15:36 | 54.17875 | -3.20417 | 25016 ft | 467 kts | 179° |
| 2026-05-05 15:37 | 54.14629 | -3.20032 | 25023 ft | 467 kts | 179° |
| 2026-05-05 15:37 | 54.12490 | -3.19638 | 25022 ft | 469 kts | 174° |
| 2026-05-05 15:37 | 54.09292 | -3.18448 | 25028 ft | 471 kts | 168° |
| 2026-05-05 15:37 | 54.06135 | -3.16924 | 25031 ft | 472 kts | 166° |
| 2026-05-05 15:38 | 54.02999 | -3.15240 | 25033 ft | 473 kts | 165° |
| 2026-05-05 15:38 | 53.99875 | -3.13470 | 25034 ft | 473 kts | 164° |
| 2026-05-05 15:38 | 53.96756 | -3.11668 | 25037 ft | 474 kts | 164° |
| 2026-05-05 15:38 | 53.93642 | -3.09865 | 25035 ft | 474 kts | 164° |
| 2026-05-05 15:39 | 53.90514 | -3.08066 | 25044 ft | 474 kts | 164° |
| 2026-05-05 15:39 | 53.87385 | -3.06281 | 25046 ft | 475 kts | 164° |
| 2026-05-05 15:39 | 53.84256 | -3.04508 | 25049 ft | 475 kts | 164° |
| 2026-05-05 15:39 | 53.81120 | -3.02742 | 25048 ft | 474 kts | 164° |
| 2026-05-05 15:40 | 53.77986 | -3.00982 | 25050 ft | 475 kts | 164° |
| 2026-05-05 15:40 | 53.74853 | -2.99229 | 25048 ft | 475 kts | 164° |
| 2026-05-05 15:40 | 53.71716 | -2.97476 | 25021 ft | 475 kts | 164° |
| 2026-05-05 15:40 | 53.68579 | -2.95726 | 25015 ft | 475 kts | 164° |
| 2026-05-05 15:41 | 53.65443 | -2.93980 | 25020 ft | 475 kts | 164° |
| 2026-05-05 15:41 | 53.62304 | -2.92232 | 25049 ft | 475 kts | 164° |
| 2026-05-05 15:41 | 53.59162 | -2.90486 | 25048 ft | 475 kts | 164° |
| 2026-05-05 15:41 | 53.56064 | -2.88766 | 25046 ft | 475 kts | 164° |
| 2026-05-05 15:42 | 53.52923 | -2.87025 | 25046 ft | 475 kts | 164° |
| 2026-05-05 15:42 | 53.49779 | -2.85286 | 25044 ft | 475 kts | 164° |
| 2026-05-05 15:42 | 53.46597 | -2.83529 | 25042 ft | 475 kts | 164° |
| 2026-05-05 15:42 | 53.43495 | -2.81818 | 25047 ft | 475 kts | 164° |
| 2026-05-05 15:43 | 53.40353 | -2.80089 | 25028 ft | 475 kts | 164° |
| 2026-05-05 15:43 | 53.37209 | -2.78361 | 25028 ft | 476 kts | 164° |
| 2026-05-05 15:43 | 53.34066 | -2.76636 | 25027 ft | 476 kts | 164° |
| 2026-05-05 15:43 | 53.30919 | -2.74913 | 25025 ft | 475 kts | 164° |
| 2026-05-05 15:44 | 53.27782 | -2.73196 | 25028 ft | 476 kts | 164° |
| 2026-05-05 15:44 | 53.24633 | -2.71476 | 25025 ft | 475 kts | 164° |
| 2026-05-05 15:44 | 53.21487 | -2.69759 | 25019 ft | 475 kts | 164° |
| 2026-05-05 15:44 | 53.18345 | -2.68047 | 25020 ft | 475 kts | 164° |
| 2026-05-05 15:45 | 53.15207 | -2.66340 | 25048 ft | 475 kts | 164° |
| 2026-05-05 15:45 | 53.12070 | -2.64636 | 24896 ft | 473 kts | 164° |
| 2026-05-05 15:45 | 53.08940 | -2.62939 | 24665 ft | 473 kts | 164° |
| 2026-05-05 15:45 | 53.05814 | -2.61246 | 24426 ft | 472 kts | 164° |
| 2026-05-05 15:46 | 53.02697 | -2.59561 | 24189 ft | 471 kts | 164° |
| 2026-05-05 15:46 | 52.99589 | -2.57884 | 23954 ft | 469 kts | 164° |
| 2026-05-05 15:46 | 52.96491 | -2.56214 | 23710 ft | 467 kts | 164° |
| 2026-05-05 15:46 | 52.93413 | -2.54556 | 23448 ft | 463 kts | 164° |
| 2026-05-05 15:47 | 52.90355 | -2.52913 | 23173 ft | 461 kts | 165° |
| 2026-05-05 15:47 | 52.87311 | -2.51280 | 22894 ft | 458 kts | 165° |
| 2026-05-05 15:47 | 52.84285 | -2.49660 | 22622 ft | 456 kts | 165° |
| 2026-05-05 15:47 | 52.81323 | -2.47765 | 22331 ft | 459 kts | 154° |
| 2026-05-05 15:48 | 52.78585 | -2.45048 | 22090 ft | 458 kts | 151° |
| 2026-05-05 15:48 | 52.75900 | -2.42216 | 21819 ft | 458 kts | 149° |
| 2026-05-05 15:48 | 52.73244 | -2.39328 | 21540 ft | 456 kts | 149° |
| 2026-05-05 15:48 | 52.70608 | -2.36439 | 21280 ft | 455 kts | 148° |
| 2026-05-05 15:49 | 52.67979 | -2.33552 | 21023 ft | 453 kts | 148° |
| 2026-05-05 15:49 | 52.65361 | -2.30678 | 20764 ft | 452 kts | 148° |
| 2026-05-05 15:49 | 52.62750 | -2.27815 | 20512 ft | 450 kts | 148° |
| 2026-05-05 15:49 | 52.60147 | -2.24964 | 20271 ft | 449 kts | 148° |
| 2026-05-05 15:50 | 52.57552 | -2.22127 | 20062 ft | 448 kts | 148° |
| 2026-05-05 15:50 | 52.54957 | -2.19292 | 20022 ft | 447 kts | 148° |
| 2026-05-05 15:50 | 52.52403 | -2.16507 | 20017 ft | 446 kts | 148° |
| 2026-05-05 15:50 | 52.49817 | -2.13690 | 20008 ft | 446 kts | 148° |
| 2026-05-05 15:51 | 52.47227 | -2.10874 | 20018 ft | 446 kts | 148° |
| 2026-05-05 15:51 | 52.44637 | -2.08061 | 20016 ft | 447 kts | 148° |
| 2026-05-05 15:51 | 52.42046 | -2.05252 | 20016 ft | 447 kts | 148° |
| 2026-05-05 15:51 | 52.39456 | -2.02447 | 20015 ft | 446 kts | 148° |
| 2026-05-05 15:52 | 52.36866 | -1.99646 | 20014 ft | 446 kts | 148° |
| 2026-05-05 15:52 | 52.34274 | -1.96846 | 19996 ft | 446 kts | 148° |
| 2026-05-05 15:52 | 52.31682 | -1.94051 | 19996 ft | 446 kts | 148° |
| 2026-05-05 15:52 | 52.29087 | -1.91257 | 19996 ft | 446 kts | 148° |
| 2026-05-05 15:53 | 52.26490 | -1.88464 | 19979 ft | 446 kts | 148° |
| 2026-05-05 15:53 | 52.23896 | -1.85679 | 19990 ft | 446 kts | 148° |
| 2026-05-05 15:53 | 52.21304 | -1.82899 | 19991 ft | 446 kts | 148° |
| 2026-05-05 15:53 | 52.18711 | -1.80123 | 19991 ft | 446 kts | 148° |
| 2026-05-05 15:54 | 52.16129 | -1.77361 | 19983 ft | 440 kts | 148° |
| 2026-05-05 15:54 | 52.13583 | -1.74642 | 19981 ft | 435 kts | 148° |
| 2026-05-05 15:54 | 52.11056 | -1.71948 | 19979 ft | 434 kts | 148° |
| 2026-05-05 15:54 | 52.08533 | -1.69261 | 19981 ft | 434 kts | 148° |
| 2026-05-05 15:55 | 52.06012 | -1.66581 | 19913 ft | 433 kts | 148° |
| 2026-05-05 15:55 | 52.03495 | -1.63908 | 19596 ft | 432 kts | 148° |
| 2026-05-05 15:55 | 52.00981 | -1.61243 | 19213 ft | 432 kts | 148° |
| 2026-05-05 15:55 | 51.98468 | -1.58584 | 18850 ft | 431 kts | 148° |
| 2026-05-05 15:56 | 51.95966 | -1.55939 | 18495 ft | 428 kts | 148° |
| 2026-05-05 15:56 | 51.93506 | -1.53339 | 18129 ft | 427 kts | 148° |
| 2026-05-05 15:56 | 51.90982 | -1.50677 | 17719 ft | 426 kts | 148° |
| 2026-05-05 15:56 | 51.88538 | -1.48103 | 17327 ft | 424 kts | 148° |
| 2026-05-05 15:57 | 51.86076 | -1.45514 | 16928 ft | 421 kts | 148° |
| 2026-05-05 15:57 | 51.83633 | -1.42950 | 16537 ft | 416 kts | 148° |
| 2026-05-05 15:57 | 51.81214 | -1.40412 | 16150 ft | 413 kts | 148° |
| 2026-05-05 15:57 | 51.78816 | -1.37899 | 15772 ft | 410 kts | 147° |
| 2026-05-05 15:58 | 51.76426 | -1.35398 | 15394 ft | 408 kts | 147° |
| 2026-05-05 15:58 | 51.74052 | -1.32919 | 15066 ft | 406 kts | 147° |
| 2026-05-05 15:58 | 51.71690 | -1.30453 | 14966 ft | 400 kts | 147° |
| 2026-05-05 15:58 | 51.69391 | -1.28056 | 14959 ft | 389 kts | 147° |
| 2026-05-05 15:59 | 51.67132 | -1.25704 | 14964 ft | 386 kts | 147° |
| 2026-05-05 15:59 | 51.64874 | -1.23356 | 14966 ft | 386 kts | 147° |
| 2026-05-05 15:59 | 51.62621 | -1.21017 | 14966 ft | 385 kts | 147° |
| 2026-05-05 15:59 | 51.60367 | -1.18678 | 14966 ft | 385 kts | 147° |
| 2026-05-05 16:00 | 51.58113 | -1.16343 | 14964 ft | 386 kts | 147° |
| 2026-05-05 16:00 | 51.55858 | -1.14010 | 14965 ft | 386 kts | 147° |
| 2026-05-05 16:00 | 51.53597 | -1.11673 | 14968 ft | 386 kts | 147° |
| 2026-05-05 16:00 | 51.51338 | -1.09341 | 14967 ft | 386 kts | 147° |
| 2026-05-05 16:01 | 51.49074 | -1.07007 | 14966 ft | 386 kts | 147° |
| 2026-05-05 16:01 | 51.46813 | -1.04678 | 14964 ft | 386 kts | 147° |
| 2026-05-05 16:01 | 51.44551 | -1.02351 | 14961 ft | 386 kts | 147° |
| 2026-05-05 16:01 | 51.42291 | -1.00029 | 14958 ft | 385 kts | 147° |
| 2026-05-05 16:02 | 51.40094 | -0.97775 | 14841 ft | 365 kts | 147° |
| 2026-05-05 16:02 | 51.37995 | -0.95623 | 14569 ft | 352 kts | 147° |
| 2026-05-05 16:02 | 51.35951 | -0.93530 | 14293 ft | 347 kts | 147° |
| 2026-05-05 16:02 | 51.33918 | -0.91451 | 14030 ft | 346 kts | 147° |
| 2026-05-05 16:03 | 51.31891 | -0.89380 | 13764 ft | 345 kts | 146° |
| 2026-05-05 16:03 | 51.29883 | -0.87330 | 13456 ft | 338 kts | 146° |
| 2026-05-05 16:03 | 51.27933 | -0.85342 | 13064 ft | 328 kts | 146° |
| 2026-05-05 16:03 | 51.26028 | -0.83402 | 12655 ft | 322 kts | 146° |
| 2026-05-05 16:04 | 51.24149 | -0.81491 | 12142 ft | 318 kts | 146° |
| 2026-05-05 16:04 | 51.22150 | -0.80022 | 11633 ft | 317 kts | 163° |
| 2026-05-05 16:04 | 51.20077 | -0.78889 | 11121 ft | 313 kts | 154° |
| 2026-05-05 16:04 | 51.18220 | -0.77205 | 10650 ft | 310 kts | 147° |
| 2026-05-05 16:05 | 51.16432 | -0.75315 | 10154 ft | 307 kts | 145° |
| 2026-05-05 16:05 | 51.14690 | -0.73373 | 9660 ft | 304 kts | 144° |
| 2026-05-05 16:05 | 51.12980 | -0.71412 | 9126 ft | 301 kts | 143° |
| 2026-05-05 16:05 | 51.11295 | -0.69450 | 8603 ft | 299 kts | 143° |
| 2026-05-05 16:06 | 51.09629 | -0.67498 | 8084 ft | 296 kts | 142° |
| 2026-05-05 16:06 | 51.07981 | -0.65556 | 7579 ft | 294 kts | 142° |
| 2026-05-05 16:06 | 51.06352 | -0.63626 | 7142 ft | 289 kts | 141° |
| 2026-05-05 16:06 | 51.05057 | -0.61316 | 7002 ft | 277 kts | 120° |
| 2026-05-05 16:07 | 51.04030 | -0.58719 | 6991 ft | 279 kts | 121° |
| 2026-05-05 16:07 | 51.02957 | -0.56139 | 6990 ft | 280 kts | 121° |
| 2026-05-05 16:07 | 51.01890 | -0.53543 | 6990 ft | 280 kts | 122° |
| 2026-05-05 16:07 | 51.00824 | -0.50961 | 6989 ft | 280 kts | 121° |
| 2026-05-05 16:08 | 50.99765 | -0.48373 | 6989 ft | 280 kts | 122° |
| 2026-05-05 16:08 | 50.98703 | -0.45789 | 6991 ft | 280 kts | 121° |
| 2026-05-05 16:08 | 50.97635 | -0.43200 | 6993 ft | 280 kts | 121° |
| 2026-05-05 16:08 | 50.96578 | -0.40652 | 6984 ft | 269 kts | 121° |
| 2026-05-05 16:09 | 50.95570 | -0.38264 | 6982 ft | 252 kts | 122° |
| 2026-05-05 16:09 | 50.94623 | -0.35989 | 7017 ft | 244 kts | 121° |
| 2026-05-05 16:09 | 50.93683 | -0.33740 | 7001 ft | 246 kts | 122° |
| 2026-05-05 16:09 | 50.92746 | -0.31465 | 6994 ft | 246 kts | 122° |
| 2026-05-05 16:10 | 50.91811 | -0.29192 | 6993 ft | 246 kts | 121° |
| 2026-05-05 16:10 | 50.90863 | -0.26922 | 6991 ft | 247 kts | 121° |
| 2026-05-05 16:10 | 50.89919 | -0.24652 | 6993 ft | 247 kts | 121° |
| 2026-05-05 16:10 | 50.89005 | -0.22348 | 6988 ft | 246 kts | 112° |
| 2026-05-05 16:11 | 50.88719 | -0.19736 | 6992 ft | 241 kts | 82° |
| 2026-05-05 16:11 | 50.92112 | -0.15640 | 6988 ft | 223 kts | 347° |
| 2026-05-05 16:12 | 50.93443 | -0.16851 | 6992 ft | 225 kts | 315° |
| 2026-05-05 16:12 | 50.94941 | -0.21215 | 6707 ft | 226 kts | 296° |
| 2026-05-05 16:13 | 50.96811 | -0.28066 | 5634 ft | 225 kts | 296° |
| 2026-05-05 16:13 | 50.97427 | -0.30345 | 5145 ft | 225 kts | 296° |
| 2026-05-05 16:13 | 50.98046 | -0.32633 | 4640 ft | 226 kts | 296° |
| 2026-05-05 16:14 | 50.99334 | -0.37211 | 3600 ft | 226 kts | 305° |
| 2026-05-05 16:14 | 51.01582 | -0.40423 | 2998 ft | 208 kts | 326° |
| 2026-05-05 16:15 | 51.03732 | -0.42985 | 2984 ft | 182 kts | 326° |
| 2026-05-05 16:15 | 51.05783 | -0.45287 | 2972 ft | 175 kts | 344° |
| 2026-05-05 16:16 | 51.07926 | -0.44260 | 2997 ft | 166 kts | 38° |
| 2026-05-05 16:16 | 51.09688 | -0.41889 | 2990 ft | 167 kts | 40° |
| 2026-05-05 16:17 | 51.11438 | -0.39455 | 2991 ft | 167 kts | 43° |
| 2026-05-05 16:17 | 51.12094 | -0.37937 | 2955 ft | 168 kts | 63° |
| 2026-05-05 16:18 | 51.12713 | -0.34317 | 2484 ft | 162 kts | 75° |
| 2026-05-05 16:18 | 51.12942 | -0.32660 | 2494 ft | 148 kts | 75° |
| 2026-05-05 16:18 | 51.13382 | -0.29487 | 2104 ft | 146 kts | 75° |
| 2026-05-05 16:19 | 51.13599 | -0.27913 | 1842 ft | 144 kts | 75° |
| 2026-05-05 16:19 | 51.13811 | -0.26376 | 1562 ft | 140 kts | 76° |
| 2026-05-05 16:19 | 51.14204 | -0.23395 | 863 ft | 137 kts | 76° |
| 2026-05-05 16:20 | 51.14613 | -0.20449 | 243 ft | 133 kts | 77° |
| 2026-05-05 16:20 | 51.14963 | -0.18472 | 206 ft | 33 kts | 53° |
| 2026-05-05 16:21 | 51.15044 | -0.18311 | 214 ft | 0 kts | 51° |
| 2026-05-05 16:23 | 51.15051 | -0.18296 | 212 ft | 3 kts | 51° |
| 2026-05-05 16:23 | 51.15071 | -0.18258 | 211 ft | 10 kts | 51° |
| 2026-05-05 16:23 | 51.15139 | -0.17970 | 211 ft | 16 kts | 78° |
| 2026-05-05 16:24 | 51.15164 | -0.17777 | 217 ft | 19 kts | 76° |
| 2026-05-05 16:24 | 51.15199 | -0.17578 | 215 ft | 19 kts | 78° |
| 2026-05-05 16:24 | 51.15245 | -0.17242 | 215 ft | 21 kts | 78° |
| 2026-05-05 16:25 | 51.15279 | -0.16995 | 208 ft | 24 kts | 79° |
| 2026-05-05 16:25 | 51.15323 | -0.16717 | 208 ft | 12 kts | 64° |
| 2026-05-05 16:25 | 51.15358 | -0.16595 | 205 ft | 13 kts | 77° |
| 2026-05-05 16:26 | 51.15313 | -0.16393 | 213 ft | 10 kts | 83° |
| 2026-05-05 16:26 | 51.15365 | -0.16264 | 207 ft | 5 kts | 349° |
| 2026-05-05 16:27 | 51.15374 | -0.16268 | 206 ft | 0 kts | 343° |